createdAt,value
2023-03-10T00:00:16.233Z,52.80
2023-03-10T00:03:01.159Z,53.83
2023-03-10T00:05:46.648Z,49.87
2023-03-10T00:08:32.066Z,50.97
2023-03-10T00:11:32.891Z,48.67
2023-03-10T00:14:18.311Z,61.47
2023-03-10T00:17:03.686Z,47.43
2023-03-10T00:19:48.873Z,53.87
2023-03-10T00:22:34.938Z,64.60
2023-03-10T00:25:20.142Z,57.43
2023-03-10T00:28:05.541Z,57.37
2023-03-10T00:31:01.717Z,62.77
2023-03-10T00:33:47.752Z,50.33
2023-03-10T00:36:33.495Z,62.30
2023-03-10T00:39:18.539Z,54.53
2023-03-10T00:42:03.582Z,52.77
2023-03-10T00:44:48.786Z,52.17
2023-03-10T00:47:33.980Z,43.27
2023-03-10T00:50:19.352Z,57.00
2023-03-10T00:53:04.275Z,54.60
2023-03-10T00:56:03.941Z,70.80
2023-03-10T00:58:54.420Z,77.70
2023-03-10T01:01:41.845Z,64.67
2023-03-10T01:04:26.855Z,64.13
2023-03-10T01:07:12.440Z,65.53
2023-03-10T01:09:57.786Z,86.53
2023-03-10T01:12:43.206Z,85.70
2023-03-10T01:15:28.070Z,107.83
2023-03-10T01:18:13.873Z,101.63
2023-03-10T01:20:58.834Z,74.83
2023-03-10T01:23:44.188Z,82.93
2023-03-10T01:26:30.001Z,76.93
2023-03-10T01:29:15.002Z,79.63
2023-03-10T01:31:59.867Z,78.53
2023-03-10T01:34:44.832Z,74.37
2023-03-10T01:37:29.653Z,64.60
2023-03-10T01:40:16.028Z,56.40
2023-03-10T01:43:19.596Z,56.77
2023-03-10T01:46:23.861Z,60.10
2023-03-10T01:49:14.027Z,59.37
2023-03-10T01:52:21.976Z,66.83
2023-03-10T01:55:30.534Z,56.07
2023-03-10T01:58:18.323Z,57.23
2023-03-10T02:01:03.914Z,48.43
2023-03-10T02:04:03.338Z,45.57
2023-03-10T02:06:48.630Z,46.80
2023-03-10T02:09:37.894Z,42.90
2023-03-10T02:12:23.547Z,46.57
2023-03-10T02:15:10.407Z,42.00
2023-03-10T02:17:56.388Z,39.13
2023-03-10T02:20:44.532Z,29.40
2023-03-10T02:24:05.489Z,19.83
2023-03-10T02:26:53.515Z,16.60
2023-03-10T02:29:58.071Z,16.30
2023-03-10T02:32:47.555Z,11.53
2023-03-10T02:35:32.747Z,10.93
2023-03-10T02:38:18.315Z,9.93
2023-03-10T02:41:16.459Z,6.80
2023-03-10T02:44:34.156Z,5.77
2023-03-10T02:47:31.428Z,6.90
2023-03-10T02:50:17.947Z,6.47
2023-03-10T02:53:11.854Z,6.40
2023-03-10T02:56:30.218Z,7.87
2023-03-10T02:59:25.955Z,9.83
2023-03-10T03:02:16.576Z,9.43
2023-03-10T03:05:01.870Z,10.30
2023-03-10T03:07:47.087Z,12.23
2023-03-10T03:10:33.495Z,12.17
2023-03-10T03:13:18.575Z,14.73
2023-03-10T03:16:06.538Z,16.23
2023-03-10T03:18:51.320Z,17.13
2023-03-10T03:21:36.661Z,18.00
2023-03-10T03:24:25.142Z,17.80
2023-03-10T03:27:10.138Z,19.20
2023-03-10T03:29:55.028Z,20.70
2023-03-10T03:32:40.111Z,21.73
2023-03-10T03:35:34.748Z,21.60
2023-03-10T03:38:19.933Z,22.70
2023-03-10T03:41:08.529Z,24.03
2023-03-10T03:43:54.077Z,23.97
2023-03-10T03:46:39.004Z,24.20
2023-03-10T03:49:27.364Z,23.57
2023-03-10T03:52:12.588Z,23.80
2023-03-10T03:54:57.711Z,23.77
2023-03-10T03:57:43.527Z,22.27
2023-03-10T04:00:28.937Z,25.07
2023-03-10T04:03:14.259Z,22.20
2023-03-10T04:05:59.535Z,22.43
2023-03-10T04:08:45.317Z,27.20
2023-03-10T04:11:33.428Z,27.97
2023-03-10T04:14:18.962Z,27.20
2023-03-10T04:17:04.963Z,28.70
2023-03-10T04:20:04.541Z,28.70
2023-03-10T04:22:52.428Z,32.03
2023-03-10T04:25:40.748Z,29.13
2023-03-10T04:28:25.866Z,28.43
2023-03-10T04:31:15.862Z,29.37
2023-03-10T04:34:00.951Z,30.67
2023-03-10T04:36:46.366Z,31.93
2023-03-10T04:39:31.785Z,30.50
2023-03-10T04:42:16.779Z,31.60
2023-03-10T04:45:01.940Z,33.37
2023-03-10T04:47:46.966Z,35.13
2023-03-10T04:50:32.336Z,39.17
2023-03-10T04:53:17.689Z,39.07
2023-03-10T04:56:06.018Z,42.33
2023-03-10T04:58:51.302Z,40.43
2023-03-10T05:01:36.313Z,39.90
2023-03-10T05:04:21.706Z,57.50
2023-03-10T05:07:06.897Z,51.70
2023-03-10T05:09:51.948Z,51.33
2023-03-10T05:12:40.327Z,55.37
2023-03-10T05:15:25.594Z,56.37
2023-03-10T05:18:11.507Z,46.77
2023-03-10T05:20:57.934Z,70.20
2023-03-10T05:23:42.880Z,78.20
2023-03-10T05:26:28.228Z,117.80
2023-03-10T05:29:13.541Z,78.13
2023-03-10T05:31:58.523Z,65.53
2023-03-10T05:34:43.386Z,87.30
2023-03-10T05:37:28.373Z,75.63
2023-03-10T05:40:15.891Z,88.03
2023-03-10T05:43:01.578Z,85.83
2023-03-10T05:45:54.880Z,88.90
2023-03-10T05:48:40.104Z,70.57
2023-03-10T05:51:25.027Z,65.83
2023-03-10T05:54:10.208Z,78.57
2023-03-10T05:56:55.398Z,87.07
2023-03-10T05:59:42.645Z,98.83
2023-03-10T06:02:27.642Z,129.17
2023-03-10T06:05:12.905Z,91.87
2023-03-10T06:07:58.427Z,79.57
2023-03-10T06:10:43.458Z,88.23
2023-03-10T06:13:28.976Z,79.17
2023-03-10T06:16:14.457Z,71.77
2023-03-10T06:18:59.705Z,120.43
2023-03-10T06:21:44.992Z,81.17
2023-03-10T06:24:30.215Z,129.23
2023-03-10T06:27:15.599Z,81.50
2023-03-10T06:30:01.285Z,91.07
2023-03-10T06:32:46.556Z,88.50
2023-03-10T06:35:32.348Z,86.70
2023-03-10T06:38:17.569Z,100.67
2023-03-10T06:41:02.809Z,84.57
2023-03-10T06:43:48.262Z,82.83
2023-03-10T06:46:33.282Z,103.90
2023-03-10T06:49:18.832Z,92.63
2023-03-10T06:52:04.490Z,76.57
2023-03-10T06:54:49.678Z,88.07
2023-03-10T06:57:35.435Z,80.97
2023-03-10T07:00:20.450Z,80.87
2023-03-10T07:03:06.311Z,87.33
2023-03-10T07:05:52.328Z,76.03
2023-03-10T07:08:37.472Z,95.03
2023-03-10T07:11:24.648Z,73.17
2023-03-10T07:14:10.077Z,67.10
2023-03-10T07:16:55.172Z,74.13
2023-03-10T07:19:40.319Z,65.70
2023-03-10T07:22:39.737Z,73.20
2023-03-10T07:25:24.714Z,72.67
2023-03-10T07:28:09.694Z,70.67
2023-03-10T07:30:55.130Z,67.70
2023-03-10T07:33:40.594Z,75.63
2023-03-10T07:36:25.998Z,67.23
2023-03-10T07:39:11.496Z,67.67
2023-03-10T07:41:56.679Z,76.07
2023-03-10T07:44:41.543Z,74.07
2023-03-10T07:47:27.202Z,77.57
2023-03-10T07:50:12.368Z,64.60
2023-03-10T07:52:57.447Z,72.27
2023-03-10T07:55:42.275Z,75.33
2023-03-10T07:58:27.412Z,75.03
2023-03-10T08:01:18.998Z,70.03
2023-03-10T08:04:04.509Z,61.97
2023-03-10T08:06:49.502Z,71.47
2023-03-10T08:09:35.499Z,54.50
2023-03-10T08:12:23.713Z,75.53
2023-03-10T08:15:09.089Z,66.17
2023-03-10T08:17:54.044Z,69.50
2023-03-10T08:20:39.264Z,65.23
2023-03-10T08:23:26.720Z,65.43
2023-03-10T08:26:17.526Z,69.67
2023-03-10T08:29:02.955Z,72.70
2023-03-10T08:31:48.891Z,61.00
2023-03-10T08:34:35.655Z,58.77
2023-03-10T08:37:20.808Z,58.63
2023-03-10T08:40:07.047Z,58.63
2023-03-10T08:42:52.544Z,58.87
2023-03-10T08:45:37.735Z,47.20
2023-03-10T08:48:22.599Z,50.50
2023-03-10T08:51:07.930Z,58.30
2023-03-10T08:53:53.858Z,43.30
2023-03-10T08:56:39.322Z,49.03
2023-03-10T08:59:24.785Z,52.87
2023-03-10T09:02:11.923Z,46.30
2023-03-10T09:04:57.287Z,46.40
2023-03-10T09:07:42.422Z,47.07
2023-03-10T09:10:28.010Z,38.10
2023-03-10T09:13:14.507Z,46.90
2023-03-10T09:16:00.275Z,42.07
2023-03-10T09:18:46.057Z,44.57
2023-03-10T09:21:33.743Z,42.37
2023-03-10T09:24:19.226Z,52.27
2023-03-10T09:27:04.400Z,49.93
2023-03-10T09:29:49.618Z,45.17
2023-03-10T09:32:35.281Z,50.83
2023-03-10T09:35:20.449Z,57.80
2023-03-10T09:38:05.794Z,52.33
2023-03-10T09:41:02.856Z,48.87
2023-03-10T09:43:57.433Z,50.17
2023-03-10T09:47:16.807Z,52.37
2023-03-10T09:50:10.913Z,54.50
2023-03-10T09:53:15.427Z,60.33
2023-03-10T09:56:00.864Z,58.63
2023-03-10T09:58:54.056Z,50.17
2023-03-10T10:01:45.198Z,48.67
2023-03-10T10:04:40.015Z,49.23
2023-03-10T10:07:32.932Z,51.50
2023-03-10T10:10:30.552Z,52.37
2023-03-10T10:13:16.600Z,42.40
2023-03-10T10:16:32.039Z,39.00
2023-03-10T10:19:27.184Z,41.03
2023-03-10T10:22:28.700Z,38.27
2023-03-10T10:25:24.829Z,41.73
2023-03-10T10:28:20.307Z,38.93
2023-03-10T10:31:19.388Z,36.97
2023-03-10T10:34:05.694Z,42.33
2023-03-10T10:36:56.423Z,46.50
2023-03-10T10:39:42.916Z,40.53
2023-03-10T10:42:33.153Z,37.70
2023-03-10T10:45:35.287Z,40.40
2023-03-10T10:48:40.379Z,42.30
2023-03-10T10:51:29.171Z,40.07
2023-03-10T10:54:27.701Z,40.20
2023-03-10T10:57:19.997Z,41.27
2023-03-10T11:00:25.492Z,39.17
2023-03-10T11:03:35.468Z,39.67
2023-03-10T11:06:30.821Z,38.90
2023-03-10T11:09:19.547Z,42.47
2023-03-10T11:12:13.110Z,33.97
2023-03-10T11:15:46.154Z,33.40
2023-03-10T11:18:37.035Z,34.07
2023-03-10T11:21:27.978Z,31.90
2023-03-10T11:24:28.814Z,37.90
2023-03-10T11:27:31.749Z,35.10
2023-03-10T11:30:25.834Z,38.50
2023-03-10T11:33:26.271Z,30.93
2023-03-10T11:36:17.114Z,34.53
2023-03-10T11:39:17.451Z,37.50
2023-03-10T11:42:33.761Z,39.33
2023-03-10T11:45:43.830Z,36.43
2023-03-10T11:48:50.827Z,32.40
2023-03-10T11:51:50.969Z,32.87
2023-03-10T11:54:42.321Z,30.53
2023-03-10T11:57:35.638Z,27.67
2023-03-10T12:00:47.442Z,29.63
2023-03-10T12:03:47.858Z,25.27
2023-03-10T12:06:40.061Z,26.97
2023-03-10T12:09:56.054Z,27.37
2023-03-10T12:12:44.478Z,30.63
2023-03-10T12:15:36.154Z,25.50
2023-03-10T12:18:21.712Z,29.07
2023-03-10T12:21:22.786Z,25.97
2023-03-10T12:24:46.677Z,26.77
2023-03-10T12:28:11.019Z,25.03
2023-03-10T12:31:32.300Z,26.27
2023-03-10T12:34:28.475Z,25.80
2023-03-10T12:37:22.557Z,26.30
2023-03-10T12:40:46.001Z,22.63
2023-03-10T12:43:37.326Z,24.67
2023-03-10T12:46:37.957Z,23.67
2023-03-10T12:49:37.848Z,27.07
2023-03-10T12:52:51.516Z,23.37
2023-03-10T12:55:37.162Z,25.03
2023-03-10T12:58:24.411Z,24.17
2023-03-10T13:01:13.592Z,26.90
2023-03-10T13:03:58.991Z,24.30
2023-03-10T13:06:46.351Z,24.77
2023-03-10T13:09:36.421Z,24.63
2023-03-10T13:12:28.864Z,21.83
2023-03-10T13:15:25.628Z,21.00
2023-03-10T13:18:16.062Z,23.53
2023-03-10T13:21:01.309Z,20.63
2023-03-10T13:23:46.395Z,20.20
2023-03-10T13:26:31.790Z,22.03
2023-03-10T13:29:19.878Z,21.17
2023-03-10T13:32:05.600Z,17.17
2023-03-10T13:34:50.734Z,20.37
2023-03-10T13:37:35.519Z,17.17
2023-03-10T13:40:23.101Z,19.37
2023-03-10T13:43:40.596Z,18.20
2023-03-10T13:46:31.659Z,18.50
2023-03-10T13:49:17.348Z,18.00
2023-03-10T13:52:12.422Z,19.17
2023-03-10T13:55:15.937Z,19.87
2023-03-10T13:58:00.822Z,18.13
2023-03-10T14:00:46.288Z,20.30
2023-03-10T14:03:31.591Z,17.03
2023-03-10T14:06:16.888Z,17.03
2023-03-10T14:09:22.503Z,18.87
2023-03-10T14:12:09.001Z,18.00
2023-03-10T14:14:54.471Z,19.60
2023-03-10T14:17:40.620Z,20.07
2023-03-10T14:20:29.872Z,19.63
2023-03-10T14:23:18.078Z,26.13
2023-03-10T14:26:08.621Z,24.70
2023-03-10T14:28:54.120Z,20.67
2023-03-10T14:31:39.769Z,20.60
2023-03-10T14:34:25.271Z,22.30
2023-03-10T14:37:10.187Z,21.47
2023-03-10T14:39:55.896Z,20.13
2023-03-10T14:42:42.562Z,20.13
2023-03-10T14:45:30.182Z,23.33
2023-03-10T14:48:21.097Z,19.50
2023-03-10T14:51:06.710Z,21.60
2023-03-10T14:53:51.647Z,22.17
2023-03-10T14:56:36.676Z,20.30
2023-03-10T14:59:21.696Z,24.47
2023-03-10T15:02:16.556Z,22.23
2023-03-10T15:05:01.605Z,22.00
2023-03-10T15:07:47.740Z,22.67
2023-03-10T15:10:37.333Z,20.40
2023-03-10T15:13:24.173Z,23.47
2023-03-10T15:16:14.290Z,22.07
2023-03-10T15:18:59.770Z,24.47
2023-03-10T15:21:44.626Z,25.93
2023-03-10T15:24:29.699Z,19.73
2023-03-10T15:27:15.200Z,20.77
2023-03-10T15:30:00.395Z,19.27
2023-03-10T15:32:46.299Z,20.17
2023-03-10T15:35:32.034Z,21.23
2023-03-10T15:38:17.245Z,21.23
2023-03-10T15:41:02.320Z,22.07
2023-03-10T15:43:47.643Z,21.30
2023-03-10T15:46:32.809Z,20.23
2023-03-10T15:49:17.870Z,81.00
2023-03-10T15:52:03.015Z,21.17
2023-03-10T15:54:48.112Z,22.30
2023-03-10T15:57:33.028Z,22.03
2023-03-10T16:00:20.031Z,21.37
2023-03-10T16:03:05.261Z,22.43
2023-03-10T16:05:50.304Z,24.37
2023-03-10T16:08:39.644Z,20.80
2023-03-10T16:11:24.453Z,21.50
2023-03-10T16:14:09.555Z,22.13
2023-03-10T16:16:54.947Z,21.47
2023-03-10T16:19:40.021Z,21.60
2023-03-10T16:22:25.209Z,21.37
2023-03-10T16:25:14.305Z,23.17
2023-03-10T16:27:59.427Z,21.07
2023-03-10T16:30:48.140Z,22.23
2023-03-10T16:33:33.754Z,25.70
2023-03-10T16:36:24.733Z,24.47
2023-03-10T16:39:11.050Z,23.10
2023-03-10T16:41:57.877Z,23.80
2023-03-10T16:44:42.948Z,22.80
2023-03-10T16:47:28.547Z,23.77
2023-03-10T16:50:13.538Z,20.33
2023-03-10T16:52:58.451Z,22.67
2023-03-10T16:55:44.868Z,22.17
2023-03-10T16:58:30.071Z,18.13
2023-03-10T17:01:15.612Z,18.53
2023-03-10T17:04:00.959Z,13.77
2023-03-10T17:06:47.103Z,12.93
2023-03-10T17:09:32.112Z,12.07
2023-03-10T17:12:17.075Z,15.47
2023-03-10T17:15:02.912Z,12.10
2023-03-10T17:17:48.396Z,16.10
2023-03-10T17:20:37.813Z,14.40
2023-03-10T17:23:23.133Z,15.83
2023-03-10T17:26:10.349Z,22.20
2023-03-10T17:28:56.070Z,15.57
2023-03-10T17:31:41.380Z,13.50
2023-03-10T17:34:26.774Z,15.20
2023-03-10T17:37:12.174Z,12.10
2023-03-10T17:39:57.098Z,11.97
2023-03-10T17:42:45.609Z,12.33
2023-03-10T17:45:30.992Z,11.23
2023-03-10T17:48:16.305Z,9.00
2023-03-10T17:51:02.091Z,9.27
2023-03-10T17:53:47.521Z,8.93
2023-03-10T17:56:35.503Z,6.90
2023-03-10T17:59:20.752Z,5.80
2023-03-10T18:02:06.231Z,6.00
2023-03-10T18:04:51.419Z,6.17
2023-03-10T18:07:36.253Z,6.27
2023-03-10T18:10:23.064Z,6.80
2023-03-10T18:13:24.640Z,7.87
2023-03-10T18:16:17.353Z,8.33
2023-03-10T18:19:03.227Z,8.87
2023-03-10T18:21:48.999Z,10.43
2023-03-10T18:24:33.856Z,8.10
2023-03-10T18:27:18.666Z,8.67
2023-03-10T18:30:04.950Z,6.00
2023-03-10T18:32:50.533Z,9.57
2023-03-10T18:35:39.799Z,10.73
2023-03-10T18:38:25.111Z,13.37
2023-03-10T18:41:10.274Z,13.87
2023-03-10T18:43:55.405Z,15.17
2023-03-10T18:46:40.356Z,18.17
2023-03-10T18:49:25.672Z,17.70
2023-03-10T18:52:11.035Z,19.90
2023-03-10T18:54:56.772Z,20.93
2023-03-10T18:57:43.557Z,21.00
2023-03-10T19:00:28.746Z,21.90
2023-03-10T19:03:14.484Z,23.40
2023-03-10T19:05:59.991Z,22.53
2023-03-10T19:08:45.307Z,19.90
2023-03-10T19:11:35.401Z,19.60
2023-03-10T19:14:20.611Z,19.27
2023-03-10T19:17:05.986Z,18.40
2023-03-10T19:19:51.831Z,18.10
2023-03-10T19:22:38.342Z,16.27
2023-03-10T19:25:23.797Z,17.97
2023-03-10T19:28:09.441Z,19.00
2023-03-10T19:30:55.357Z,18.87
2023-03-10T19:33:40.489Z,18.63
2023-03-10T19:36:25.864Z,18.23
2023-03-10T19:39:11.283Z,18.93
2023-03-10T19:41:56.676Z,18.87
2023-03-10T19:44:41.948Z,20.37
2023-03-10T19:47:29.860Z,20.20
2023-03-10T19:50:16.832Z,21.40
2023-03-10T19:53:02.225Z,23.70
2023-03-10T19:55:56.983Z,23.43
2023-03-10T19:58:42.468Z,24.43
2023-03-10T20:01:28.488Z,22.50
2023-03-10T20:04:13.956Z,24.67
2023-03-10T20:06:59.344Z,24.83
2023-03-10T20:09:44.566Z,23.83
2023-03-10T20:12:29.409Z,24.03
2023-03-10T20:15:14.863Z,23.20
2023-03-10T20:18:00.180Z,24.70
2023-03-10T20:20:45.869Z,23.97
2023-03-10T20:23:31.696Z,23.70
2023-03-10T20:26:17.801Z,24.37
2023-03-10T20:29:03.640Z,26.73
2023-03-10T20:31:48.863Z,27.67
2023-03-10T20:34:34.188Z,26.10
2023-03-10T20:37:19.644Z,26.00
2023-03-10T20:40:06.851Z,27.33
2023-03-10T20:42:56.031Z,29.00
2023-03-10T20:45:41.687Z,27.13
2023-03-10T20:48:26.981Z,28.77
2023-03-10T20:51:14.901Z,26.00
2023-03-10T20:54:00.485Z,25.53
2023-03-10T20:56:45.425Z,26.90
2023-03-10T20:59:30.937Z,24.77
2023-03-10T21:02:17.442Z,23.50
2023-03-10T21:05:02.397Z,25.30
2023-03-10T21:07:47.923Z,23.33
2023-03-10T21:10:33.147Z,22.60
2023-03-10T21:16:20.609Z,21.37
2023-03-10T21:19:06.116Z,21.00
2023-03-10T21:21:51.613Z,21.50
2023-03-10T21:24:36.785Z,20.93
2023-03-10T21:27:22.128Z,20.57
2023-03-10T21:30:08.994Z,20.43
2023-03-10T21:32:58.136Z,16.97
2023-03-10T21:35:43.415Z,18.23
2023-03-10T21:38:28.908Z,19.57
2023-03-10T21:41:16.698Z,19.47
2023-03-10T21:44:02.135Z,18.83
2023-03-10T21:46:47.308Z,20.37
2023-03-10T21:49:33.021Z,20.03
2023-03-10T21:52:18.203Z,21.67
2023-03-10T21:55:04.041Z,20.97
2023-03-10T21:57:49.697Z,19.83
2023-03-10T22:00:35.471Z,19.20
2023-03-10T22:03:20.859Z,18.33
2023-03-10T22:06:06.300Z,18.60
2023-03-10T22:08:52.032Z,18.40
2023-03-10T22:11:37.035Z,19.40
2023-03-10T22:14:24.434Z,17.77
2023-03-10T22:17:09.941Z,17.83
2023-03-10T22:19:55.333Z,17.33
2023-03-10T22:22:41.971Z,18.20
2023-03-10T22:25:27.298Z,17.03
2023-03-10T22:28:12.692Z,20.57
2023-03-10T22:30:58.543Z,19.73
2023-03-10T22:33:43.852Z,15.87
2023-03-10T22:36:29.022Z,15.80
2023-03-10T22:39:14.314Z,15.87
2023-03-10T22:41:59.793Z,16.87
2023-03-10T22:44:45.156Z,18.30
2023-03-10T22:47:30.474Z,15.97
2023-03-10T22:50:22.787Z,14.87
2023-03-10T22:53:13.734Z,15.53
2023-03-10T22:55:58.568Z,15.43
2023-03-10T22:58:43.917Z,16.03
2023-03-10T23:01:28.827Z,15.90
2023-03-10T23:04:14.133Z,15.37
2023-03-10T23:06:59.354Z,15.10
2023-03-10T23:09:44.830Z,14.90
2023-03-10T23:12:29.826Z,13.90
2023-03-10T23:15:24.819Z,15.73
2023-03-10T23:18:11.144Z,15.33
2023-03-10T23:20:56.605Z,16.00
2023-03-10T23:23:42.186Z,15.47
2023-03-10T23:26:27.449Z,14.90
2023-03-10T23:29:12.699Z,15.07
2023-03-10T23:31:58.064Z,15.33
2023-03-10T23:34:43.413Z,16.33
2023-03-10T23:37:28.786Z,14.17
2023-03-10T23:40:16.156Z,14.00
2023-03-10T23:43:03.743Z,14.97
2023-03-10T23:45:49.436Z,12.73
2023-03-10T23:48:35.028Z,13.70
2023-03-10T23:51:20.221Z,15.40
2023-03-10T23:54:05.618Z,14.43
2023-03-10T23:56:51.020Z,14.37
2023-03-10T23:59:36.242Z,13.10
